sensor_id;sensor_type;location;lat;lon;timestamp;P1;durP1;ratioP1;P2;durP2;ratioP2
25127;SDS011;13107;51.304;6.866;2022-08-19T00:02:11;8.77;;;7.80;;
25127;SDS011;13107;51.304;6.866;2022-08-19T00:06:14;9.13;;;7.97;;
25127;SDS011;13107;51.304;6.866;2022-08-19T00:10:20;9.30;;;8.25;;
25127;SDS011;13107;51.304;6.866;2022-08-19T00:14:23;9.75;;;7.82;;
25127;SDS011;13107;51.304;6.866;2022-08-19T00:18:26;10.05;;;7.47;;
25127;SDS011;13107;51.304;6.866;2022-08-19T00:22:28;8.85;;;7.90;;
25127;SDS011;13107;51.304;6.866;2022-08-19T00:26:30;11.55;;;8.15;;
25127;SDS011;13107;51.304;6.866;2022-08-19T00:30:31;10.25;;;8.52;;
25127;SDS011;13107;51.304;6.866;2022-08-19T00:34:33;10.38;;;8.43;;
25127;SDS011;13107;51.304;6.866;2022-08-19T00:38:36;8.80;;;7.78;;
25127;SDS011;13107;51.304;6.866;2022-08-19T00:42:40;8.85;;;7.85;;
25127;SDS011;13107;51.304;6.866;2022-08-19T00:46:43;12.00;;;7.50;;
25127;SDS011;13107;51.304;6.866;2022-08-19T00:50:58;14.30;;;7.80;;
25127;SDS011;13107;51.304;6.866;2022-08-19T00:55:00;12.55;;;7.47;;
25127;SDS011;13107;51.304;6.866;2022-08-19T00:59:03;7.97;;;7.28;;
25127;SDS011;13107;51.304;6.866;2022-08-19T01:03:10;7.93;;;7.12;;
25127;SDS011;13107;51.304;6.866;2022-08-19T01:07:14;9.90;;;8.30;;
25127;SDS011;13107;51.304;6.866;2022-08-19T01:11:20;10.38;;;7.68;;
25127;SDS011;13107;51.304;6.866;2022-08-19T01:15:23;7.80;;;7.10;;
25127;SDS011;13107;51.304;6.866;2022-08-19T01:19:36;14.70;;;7.85;;
25127;SDS011;13107;51.304;6.866;2022-08-19T01:23:44;9.73;;;7.03;;
25127;SDS011;13107;51.304;6.866;2022-08-19T01:27:48;11.50;;;7.62;;
25127;SDS011;13107;51.304;6.866;2022-08-19T01:32:12;8.07;;;7.30;;
25127;SDS011;13107;51.304;6.866;2022-08-19T01:36:37;7.97;;;7.32;;
25127;SDS011;13107;51.304;6.866;2022-08-19T01:40:46;10.77;;;7.37;;
25127;SDS011;13107;51.304;6.866;2022-08-19T01:44:48;8.32;;;7.53;;
25127;SDS011;13107;51.304;6.866;2022-08-19T01:48:50;8.18;;;7.10;;
25127;SDS011;13107;51.304;6.866;2022-08-19T01:52:52;7.90;;;7.18;;
25127;SDS011;13107;51.304;6.866;2022-08-19T01:57:15;9.10;;;7.30;;
25127;SDS011;13107;51.304;6.866;2022-08-19T02:01:17;9.02;;;7.90;;
25127;SDS011;13107;51.304;6.866;2022-08-19T02:05:19;10.70;;;7.55;;
25127;SDS011;13107;51.304;6.866;2022-08-19T02:09:22;9.77;;;7.80;;
25127;SDS011;13107;51.304;6.866;2022-08-19T02:13:24;9.38;;;7.12;;
25127;SDS011;13107;51.304;6.866;2022-08-19T02:17:26;12.77;;;7.72;;
25127;SDS011;13107;51.304;6.866;2022-08-19T02:21:30;11.65;;;7.57;;
25127;SDS011;13107;51.304;6.866;2022-08-19T02:25:32;11.52;;;8.45;;
25127;SDS011;13107;51.304;6.866;2022-08-19T02:29:34;8.77;;;7.87;;
25127;SDS011;13107;51.304;6.866;2022-08-19T02:33:35;9.60;;;8.38;;
25127;SDS011;13107;51.304;6.866;2022-08-19T02:37:37;8.95;;;8.05;;
25127;SDS011;13107;51.304;6.866;2022-08-19T02:41:58;12.02;;;7.57;;
25127;SDS011;13107;51.304;6.866;2022-08-19T02:46:01;8.88;;;7.50;;
25127;SDS011;13107;51.304;6.866;2022-08-19T02:50:03;9.20;;;7.82;;
25127;SDS011;13107;51.304;6.866;2022-08-19T02:54:07;15.93;;;8.77;;
25127;SDS011;13107;51.304;6.866;2022-08-19T02:58:10;10.82;;;8.40;;
25127;SDS011;13107;51.304;6.866;2022-08-19T03:02:12;10.95;;;8.05;;
25127;SDS011;13107;51.304;6.866;2022-08-19T03:06:14;9.82;;;8.18;;
25127;SDS011;13107;51.304;6.866;2022-08-19T03:10:16;11.45;;;7.80;;
25127;SDS011;13107;51.304;6.866;2022-08-19T03:14:19;8.23;;;7.43;;
25127;SDS011;13107;51.304;6.866;2022-08-19T03:18:21;11.20;;;8.15;;
25127;SDS011;13107;51.304;6.866;2022-08-19T03:22:23;12.37;;;8.77;;
25127;SDS011;13107;51.304;6.866;2022-08-19T03:26:26;12.05;;;8.75;;
25127;SDS011;13107;51.304;6.866;2022-08-19T03:30:28;9.30;;;8.32;;
25127;SDS011;13107;51.304;6.866;2022-08-19T03:34:31;12.07;;;8.55;;
25127;SDS011;13107;51.304;6.866;2022-08-19T03:38:38;10.40;;;9.02;;
25127;SDS011;13107;51.304;6.866;2022-08-19T03:42:45;10.75;;;8.68;;
25127;SDS011;13107;51.304;6.866;2022-08-19T03:46:57;13.73;;;8.52;;
25127;SDS011;13107;51.304;6.866;2022-08-19T03:51:00;10.57;;;8.90;;
25127;SDS011;13107;51.304;6.866;2022-08-19T03:55:03;11.40;;;8.85;;
25127;SDS011;13107;51.304;6.866;2022-08-19T03:59:06;10.52;;;8.82;;
25127;SDS011;13107;51.304;6.866;2022-08-19T04:03:18;8.68;;;7.87;;
25127;SDS011;13107;51.304;6.866;2022-08-19T04:07:27;9.43;;;8.45;;
25127;SDS011;13107;51.304;6.866;2022-08-19T04:11:40;11.23;;;8.13;;
25127;SDS011;13107;51.304;6.866;2022-08-19T04:15:54;8.75;;;7.85;;
25127;SDS011;13107;51.304;6.866;2022-08-19T04:19:56;11.05;;;8.55;;
25127;SDS011;13107;51.304;6.866;2022-08-19T04:23:58;10.00;;;7.65;;
25127;SDS011;13107;51.304;6.866;2022-08-19T04:28:00;13.18;;;8.15;;
25127;SDS011;13107;51.304;6.866;2022-08-19T04:32:02;8.80;;;7.90;;
25127;SDS011;13107;51.304;6.866;2022-08-19T04:36:16;10.07;;;8.70;;
25127;SDS011;13107;51.304;6.866;2022-08-19T04:40:21;12.98;;;9.20;;
25127;SDS011;13107;51.304;6.866;2022-08-19T04:44:41;10.90;;;9.40;;
25127;SDS011;13107;51.304;6.866;2022-08-19T04:48:46;12.43;;;8.20;;
25127;SDS011;13107;51.304;6.866;2022-08-19T04:52:50;9.35;;;8.43;;
25127;SDS011;13107;51.304;6.866;2022-08-19T04:56:53;14.23;;;12.05;;
25127;SDS011;13107;51.304;6.866;2022-08-19T05:00:55;12.65;;;9.60;;
25127;SDS011;13107;51.304;6.866;2022-08-19T05:04:57;11.90;;;8.65;;
25127;SDS011;13107;51.304;6.866;2022-08-19T05:09:02;13.68;;;11.52;;
25127;SDS011;13107;51.304;6.866;2022-08-19T05:13:06;11.40;;;9.70;;
25127;SDS011;13107;51.304;6.866;2022-08-19T05:17:10;9.82;;;8.70;;
25127;SDS011;13107;51.304;6.866;2022-08-19T05:21:28;12.43;;;10.13;;
25127;SDS011;13107;51.304;6.866;2022-08-19T05:25:49;12.05;;;10.88;;
25127;SDS011;13107;51.304;6.866;2022-08-19T05:29:52;17.10;;;13.65;;
25127;SDS011;13107;51.304;6.866;2022-08-19T05:33:54;17.48;;;13.32;;
25127;SDS011;13107;51.304;6.866;2022-08-19T05:37:57;13.57;;;9.40;;
25127;SDS011;13107;51.304;6.866;2022-08-19T05:42:00;14.52;;;10.13;;
25127;SDS011;13107;51.304;6.866;2022-08-19T05:46:05;12.90;;;10.95;;
25127;SDS011;13107;51.304;6.866;2022-08-19T05:50:07;12.73;;;9.50;;
25127;SDS011;13107;51.304;6.866;2022-08-19T05:54:09;17.20;;;15.40;;
25127;SDS011;13107;51.304;6.866;2022-08-19T05:58:14;12.73;;;11.23;;
25127;SDS011;13107;51.304;6.866;2022-08-19T06:02:16;17.30;;;12.27;;
25127;SDS011;13107;51.304;6.866;2022-08-19T06:06:18;33.35;;;27.75;;
25127;SDS011;13107;51.304;6.866;2022-08-19T06:10:20;41.88;;;34.47;;
25127;SDS011;13107;51.304;6.866;2022-08-19T06:14:23;41.83;;;33.67;;
25127;SDS011;13107;51.304;6.866;2022-08-19T06:18:28;51.90;;;38.35;;
25127;SDS011;13107;51.304;6.866;2022-08-19T06:22:30;63.65;;;51.88;;
25127;SDS011;13107;51.304;6.866;2022-08-19T06:26:32;65.40;;;49.63;;
25127;SDS011;13107;51.304;6.866;2022-08-19T06:30:35;56.20;;;47.40;;
25127;SDS011;13107;51.304;6.866;2022-08-19T06:34:38;59.35;;;49.97;;
25127;SDS011;13107;51.304;6.866;2022-08-19T06:38:40;73.18;;;59.83;;
25127;SDS011;13107;51.304;6.866;2022-08-19T06:42:44;70.10;;;57.53;;
25127;SDS011;13107;51.304;6.866;2022-08-19T06:46:55;67.80;;;53.87;;
25127;SDS011;13107;51.304;6.866;2022-08-19T06:50:57;73.60;;;61.28;;
25127;SDS011;13107;51.304;6.866;2022-08-19T06:55:00;71.03;;;59.05;;
25127;SDS011;13107;51.304;6.866;2022-08-19T06:59:07;73.57;;;61.33;;
25127;SDS011;13107;51.304;6.866;2022-08-19T07:03:11;76.40;;;62.40;;
25127;SDS011;13107;51.304;6.866;2022-08-19T07:07:14;70.90;;;56.58;;
25127;SDS011;13107;51.304;6.866;2022-08-19T07:11:21;67.68;;;55.90;;
25127;SDS011;13107;51.304;6.866;2022-08-19T07:15:24;64.37;;;53.00;;
25127;SDS011;13107;51.304;6.866;2022-08-19T07:19:26;62.35;;;52.67;;
25127;SDS011;13107;51.304;6.866;2022-08-19T07:23:29;58.33;;;49.53;;
25127;SDS011;13107;51.304;6.866;2022-08-19T07:27:31;59.50;;;50.10;;
25127;SDS011;13107;51.304;6.866;2022-08-19T07:31:35;60.25;;;50.72;;
25127;SDS011;13107;51.304;6.866;2022-08-19T07:35:45;52.47;;;45.35;;
25127;SDS011;13107;51.304;6.866;2022-08-19T07:39:47;48.90;;;42.97;;
25127;SDS011;13107;51.304;6.866;2022-08-19T07:43:49;53.47;;;45.97;;
25127;SDS011;13107;51.304;6.866;2022-08-19T07:47:51;50.10;;;42.58;;
25127;SDS011;13107;51.304;6.866;2022-08-19T07:52:00;45.58;;;38.15;;
25127;SDS011;13107;51.304;6.866;2022-08-19T07:56:06;45.05;;;37.25;;
25127;SDS011;13107;51.304;6.866;2022-08-19T08:00:08;41.22;;;34.95;;
25127;SDS011;13107;51.304;6.866;2022-08-19T08:04:10;38.50;;;34.30;;
25127;SDS011;13107;51.304;6.866;2022-08-19T08:08:31;34.13;;;28.83;;
25127;SDS011;13107;51.304;6.866;2022-08-19T08:12:53;29.65;;;26.50;;
25127;SDS011;13107;51.304;6.866;2022-08-19T08:21:13;29.85;;;26.30;;
25127;SDS011;13107;51.304;6.866;2022-08-19T08:25:16;34.03;;;27.95;;
25127;SDS011;13107;51.304;6.866;2022-08-19T08:29:22;32.95;;;27.55;;
25127;SDS011;13107;51.304;6.866;2022-08-19T08:33:27;29.27;;;24.33;;
25127;SDS011;13107;51.304;6.866;2022-08-19T08:37:35;31.33;;;25.15;;
25127;SDS011;13107;51.304;6.866;2022-08-19T08:41:45;34.10;;;26.80;;
25127;SDS011;13107;51.304;6.866;2022-08-19T08:46:05;32.80;;;25.52;;
25127;SDS011;13107;51.304;6.866;2022-08-19T08:50:20;40.70;;;30.65;;
25127;SDS011;13107;51.304;6.866;2022-08-19T08:54:29;35.00;;;29.12;;
25127;SDS011;13107;51.304;6.866;2022-08-19T08:58:45;32.20;;;27.60;;
25127;SDS011;13107;51.304;6.866;2022-08-19T09:03:03;38.63;;;34.30;;
25127;SDS011;13107;51.304;6.866;2022-08-19T09:12:01;36.20;;;30.75;;
25127;SDS011;13107;51.304;6.866;2022-08-19T09:16:13;34.45;;;30.75;;
25127;SDS011;13107;51.304;6.866;2022-08-19T09:20:22;32.35;;;28.87;;
25127;SDS011;13107;51.304;6.866;2022-08-19T09:24:26;30.15;;;26.83;;
25127;SDS011;13107;51.304;6.866;2022-08-19T09:28:32;30.65;;;26.58;;
25127;SDS011;13107;51.304;6.866;2022-08-19T09:32:34;22.67;;;20.37;;
25127;SDS011;13107;51.304;6.866;2022-08-19T09:36:36;23.50;;;18.12;;
25127;SDS011;13107;51.304;6.866;2022-08-19T09:40:54;20.88;;;18.67;;
25127;SDS011;13107;51.304;6.866;2022-08-19T09:44:56;24.80;;;22.10;;
25127;SDS011;13107;51.304;6.866;2022-08-19T09:49:08;23.20;;;20.30;;
25127;SDS011;13107;51.304;6.866;2022-08-19T09:53:18;24.08;;;20.45;;
25127;SDS011;13107;51.304;6.866;2022-08-19T09:57:25;25.12;;;20.25;;
25127;SDS011;13107;51.304;6.866;2022-08-19T10:01:28;22.67;;;18.17;;
25127;SDS011;13107;51.304;6.866;2022-08-19T10:05:32;24.95;;;22.02;;
25127;SDS011;13107;51.304;6.866;2022-08-19T10:10:11;23.50;;;19.73;;
25127;SDS011;13107;51.304;6.866;2022-08-19T10:14:13;24.77;;;20.17;;
25127;SDS011;13107;51.304;6.866;2022-08-19T10:18:16;28.55;;;23.62;;
25127;SDS011;13107;51.304;6.866;2022-08-19T10:22:19;28.30;;;24.08;;
25127;SDS011;13107;51.304;6.866;2022-08-19T10:26:22;25.25;;;21.52;;
25127;SDS011;13107;51.304;6.866;2022-08-19T10:30:28;22.77;;;20.27;;
25127;SDS011;13107;51.304;6.866;2022-08-19T10:34:31;20.85;;;17.60;;
25127;SDS011;13107;51.304;6.866;2022-08-19T10:38:33;19.75;;;16.98;;
25127;SDS011;13107;51.304;6.866;2022-08-19T10:42:35;22.90;;;20.45;;
25127;SDS011;13107;51.304;6.866;2022-08-19T10:46:39;21.73;;;19.52;;
25127;SDS011;13107;51.304;6.866;2022-08-19T10:50:48;18.62;;;15.32;;
25127;SDS011;13107;51.304;6.866;2022-08-19T10:55:08;19.73;;;15.88;;
25127;SDS011;13107;51.304;6.866;2022-08-19T10:59:30;21.35;;;17.83;;
25127;SDS011;13107;51.304;6.866;2022-08-19T11:03:36;16.60;;;13.85;;
25127;SDS011;13107;51.304;6.866;2022-08-19T11:07:39;16.55;;;14.80;;
25127;SDS011;13107;51.304;6.866;2022-08-19T11:11:41;16.23;;;11.77;;
25127;SDS011;13107;51.304;6.866;2022-08-19T11:15:44;14.38;;;11.43;;
25127;SDS011;13107;51.304;6.866;2022-08-19T11:19:48;11.77;;;10.25;;
25127;SDS011;13107;51.304;6.866;2022-08-19T11:23:52;12.57;;;9.85;;
25127;SDS011;13107;51.304;6.866;2022-08-19T11:27:56;14.43;;;10.90;;
25127;SDS011;13107;51.304;6.866;2022-08-19T11:31:58;12.30;;;9.32;;
25127;SDS011;13107;51.304;6.866;2022-08-19T11:36:02;12.15;;;9.30;;
25127;SDS011;13107;51.304;6.866;2022-08-19T11:40:06;10.32;;;7.97;;
25127;SDS011;13107;51.304;6.866;2022-08-19T11:44:08;7.78;;;6.93;;
25127;SDS011;13107;51.304;6.866;2022-08-19T11:48:10;8.50;;;7.70;;
25127;SDS011;13107;51.304;6.866;2022-08-19T11:52:12;8.13;;;6.97;;
25127;SDS011;13107;51.304;6.866;2022-08-19T11:56:14;9.38;;;7.53;;
25127;SDS011;13107;51.304;6.866;2022-08-19T12:00:16;7.53;;;6.18;;
25127;SDS011;13107;51.304;6.866;2022-08-19T12:04:17;9.57;;;6.72;;
25127;SDS011;13107;51.304;6.866;2022-08-19T12:08:20;7.30;;;6.30;;
25127;SDS011;13107;51.304;6.866;2022-08-19T12:12:22;8.60;;;7.50;;
25127;SDS011;13107;51.304;6.866;2022-08-19T12:16:26;7.85;;;6.32;;
25127;SDS011;13107;51.304;6.866;2022-08-19T12:20:43;6.93;;;6.30;;
25127;SDS011;13107;51.304;6.866;2022-08-19T12:25:05;8.50;;;6.50;;
25127;SDS011;13107;51.304;6.866;2022-08-19T12:29:07;10.23;;;6.55;;
25127;SDS011;13107;51.304;6.866;2022-08-19T12:33:09;9.68;;;6.95;;
25127;SDS011;13107;51.304;6.866;2022-08-19T12:37:11;8.02;;;6.05;;
25127;SDS011;13107;51.304;6.866;2022-08-19T12:41:14;10.77;;;6.35;;
25127;SDS011;13107;51.304;6.866;2022-08-19T12:45:19;6.63;;;5.93;;
25127;SDS011;13107;51.304;6.866;2022-08-19T12:49:21;7.72;;;6.78;;
25127;SDS011;13107;51.304;6.866;2022-08-19T12:53:43;11.40;;;5.75;;
25127;SDS011;13107;51.304;6.866;2022-08-19T12:57:45;9.75;;;5.62;;
25127;SDS011;13107;51.304;6.866;2022-08-19T13:01:48;8.25;;;6.10;;
25127;SDS011;13107;51.304;6.866;2022-08-19T13:05:50;6.85;;;5.82;;
25127;SDS011;13107;51.304;6.866;2022-08-19T13:09:52;6.60;;;5.12;;
25127;SDS011;13107;51.304;6.866;2022-08-19T13:13:54;8.05;;;4.93;;
25127;SDS011;13107;51.304;6.866;2022-08-19T13:17:56;9.27;;;4.53;;
25127;SDS011;13107;51.304;6.866;2022-08-19T13:21:59;8.85;;;5.50;;
25127;SDS011;13107;51.304;6.866;2022-08-19T13:26:04;11.70;;;5.80;;
25127;SDS011;13107;51.304;6.866;2022-08-19T13:30:08;6.70;;;5.43;;
25127;SDS011;13107;51.304;6.866;2022-08-19T13:34:33;7.97;;;4.95;;
25127;SDS011;13107;51.304;6.866;2022-08-19T13:38:36;4.70;;;4.15;;
25127;SDS011;13107;51.304;6.866;2022-08-19T13:42:39;8.20;;;3.95;;
25127;SDS011;13107;51.304;6.866;2022-08-19T13:46:41;5.20;;;3.22;;
25127;SDS011;13107;51.304;6.866;2022-08-19T13:50:46;8.10;;;3.50;;
25127;SDS011;13107;51.304;6.866;2022-08-19T13:54:49;27.48;;;4.65;;
25127;SDS011;13107;51.304;6.866;2022-08-19T13:58:50;5.18;;;3.53;;
25127;SDS011;13107;51.304;6.866;2022-08-19T14:02:53;5.20;;;3.70;;
25127;SDS011;13107;51.304;6.866;2022-08-19T14:06:57;4.75;;;3.70;;
25127;SDS011;13107;51.304;6.866;2022-08-19T14:10:58;5.80;;;3.10;;
25127;SDS011;13107;51.304;6.866;2022-08-19T14:15:07;18.87;;;4.50;;
25127;SDS011;13107;51.304;6.866;2022-08-19T14:19:10;7.72;;;3.50;;
25127;SDS011;13107;51.304;6.866;2022-08-19T14:23:12;5.85;;;3.30;;
25127;SDS011;13107;51.304;6.866;2022-08-19T14:27:14;3.87;;;3.15;;
25127;SDS011;13107;51.304;6.866;2022-08-19T14:31:16;5.30;;;3.10;;
25127;SDS011;13107;51.304;6.866;2022-08-19T14:35:20;4.72;;;3.25;;
25127;SDS011;13107;51.304;6.866;2022-08-19T14:39:22;5.55;;;3.65;;
25127;SDS011;13107;51.304;6.866;2022-08-19T14:43:24;6.00;;;2.97;;
25127;SDS011;13107;51.304;6.866;2022-08-19T14:47:26;6.68;;;3.87;;
25127;SDS011;13107;51.304;6.866;2022-08-19T14:51:28;5.30;;;3.25;;
25127;SDS011;13107;51.304;6.866;2022-08-19T14:55:30;5.60;;;3.85;;
25127;SDS011;13107;51.304;6.866;2022-08-19T14:59:34;7.50;;;3.85;;
25127;SDS011;13107;51.304;6.866;2022-08-19T15:03:36;10.27;;;3.72;;
25127;SDS011;13107;51.304;6.866;2022-08-19T15:07:38;8.80;;;3.90;;
25127;SDS011;13107;51.304;6.866;2022-08-19T15:11:42;8.80;;;3.55;;
25127;SDS011;13107;51.304;6.866;2022-08-19T15:15:44;5.72;;;3.12;;
25127;SDS011;13107;51.304;6.866;2022-08-19T15:19:46;7.97;;;3.67;;
25127;SDS011;13107;51.304;6.866;2022-08-19T15:23:49;7.20;;;3.17;;
25127;SDS011;13107;51.304;6.866;2022-08-19T15:27:51;5.47;;;3.00;;
25127;SDS011;13107;51.304;6.866;2022-08-19T15:31:54;6.32;;;2.90;;
25127;SDS011;13107;51.304;6.866;2022-08-19T15:35:58;5.25;;;2.97;;
25127;SDS011;13107;51.304;6.866;2022-08-19T15:40:00;6.40;;;3.00;;
25127;SDS011;13107;51.304;6.866;2022-08-19T15:44:04;4.43;;;2.67;;
25127;SDS011;13107;51.304;6.866;2022-08-19T15:52:11;3.87;;;2.62;;
25127;SDS011;13107;51.304;6.866;2022-08-19T15:56:13;8.00;;;2.83;;
25127;SDS011;13107;51.304;6.866;2022-08-19T16:00:15;5.95;;;3.45;;
25127;SDS011;13107;51.304;6.866;2022-08-19T16:04:37;8.25;;;3.80;;
25127;SDS011;13107;51.304;6.866;2022-08-19T16:09:05;6.25;;;3.45;;
25127;SDS011;13107;51.304;6.866;2022-08-19T16:13:06;5.93;;;3.33;;
25127;SDS011;13107;51.304;6.866;2022-08-19T16:17:10;5.78;;;3.10;;
25127;SDS011;13107;51.304;6.866;2022-08-19T16:21:14;3.45;;;3.10;;
25127;SDS011;13107;51.304;6.866;2022-08-19T16:25:19;5.93;;;3.70;;
25127;SDS011;13107;51.304;6.866;2022-08-19T16:29:27;5.53;;;3.85;;
25127;SDS011;13107;51.304;6.866;2022-08-19T16:33:39;5.85;;;4.60;;
25127;SDS011;13107;51.304;6.866;2022-08-19T16:37:41;6.65;;;4.87;;
25127;SDS011;13107;51.304;6.866;2022-08-19T16:41:44;7.53;;;4.90;;
25127;SDS011;13107;51.304;6.866;2022-08-19T16:45:47;7.35;;;5.25;;
25127;SDS011;13107;51.304;6.866;2022-08-19T16:49:50;7.68;;;6.78;;
25127;SDS011;13107;51.304;6.866;2022-08-19T16:53:55;9.85;;;6.50;;
25127;SDS011;13107;51.304;6.866;2022-08-19T16:57:57;9.27;;;6.50;;
25127;SDS011;13107;51.304;6.866;2022-08-19T17:02:04;8.00;;;6.75;;
25127;SDS011;13107;51.304;6.866;2022-08-19T17:06:09;8.02;;;6.95;;
25127;SDS011;13107;51.304;6.866;2022-08-19T17:10:21;7.50;;;6.50;;
25127;SDS011;13107;51.304;6.866;2022-08-19T17:14:24;9.18;;;7.05;;
25127;SDS011;13107;51.304;6.866;2022-08-19T17:18:25;12.13;;;7.32;;
25127;SDS011;13107;51.304;6.866;2022-08-19T17:22:31;10.37;;;7.80;;
25127;SDS011;13107;51.304;6.866;2022-08-19T17:26:36;13.57;;;8.23;;
25127;SDS011;13107;51.304;6.866;2022-08-19T17:30:38;12.35;;;8.30;;
25127;SDS011;13107;51.304;6.866;2022-08-19T17:34:41;12.65;;;8.02;;
25127;SDS011;13107;51.304;6.866;2022-08-19T17:38:44;10.32;;;9.15;;
25127;SDS011;13107;51.304;6.866;2022-08-19T17:42:46;11.18;;;8.43;;
25127;SDS011;13107;51.304;6.866;2022-08-19T17:46:48;9.60;;;7.45;;
25127;SDS011;13107;51.304;6.866;2022-08-19T17:50:50;8.60;;;7.12;;
25127;SDS011;13107;51.304;6.866;2022-08-19T17:54:52;10.95;;;7.07;;
25127;SDS011;13107;51.304;6.866;2022-08-19T17:58:54;11.90;;;7.47;;
25127;SDS011;13107;51.304;6.866;2022-08-19T18:03:02;10.65;;;7.35;;
25127;SDS011;13107;51.304;6.866;2022-08-19T18:07:07;10.27;;;7.37;;
25127;SDS011;13107;51.304;6.866;2022-08-19T18:11:09;11.65;;;7.03;;
25127;SDS011;13107;51.304;6.866;2022-08-19T18:15:11;7.25;;;6.30;;
25127;SDS011;13107;51.304;6.866;2022-08-19T18:19:13;6.47;;;5.80;;
25127;SDS011;13107;51.304;6.866;2022-08-19T18:23:15;7.57;;;6.32;;
25127;SDS011;13107;51.304;6.866;2022-08-19T18:27:37;12.00;;;7.28;;
25127;SDS011;13107;51.304;6.866;2022-08-19T18:31:40;13.43;;;7.97;;
25127;SDS011;13107;51.304;6.866;2022-08-19T18:35:44;10.60;;;6.10;;
25127;SDS011;13107;51.304;6.866;2022-08-19T18:39:48;8.52;;;7.40;;
25127;SDS011;13107;51.304;6.866;2022-08-19T18:44:09;8.43;;;6.50;;
25127;SDS011;13107;51.304;6.866;2022-08-19T18:48:29;6.78;;;5.68;;
25127;SDS011;13107;51.304;6.866;2022-08-19T18:52:50;6.47;;;4.93;;
25127;SDS011;13107;51.304;6.866;2022-08-19T18:56:52;7.37;;;4.30;;
25127;SDS011;13107;51.304;6.866;2022-08-19T19:00:55;4.70;;;3.60;;
25127;SDS011;13107;51.304;6.866;2022-08-19T19:04:57;3.95;;;3.33;;
25127;SDS011;13107;51.304;6.866;2022-08-19T19:09:04;5.87;;;4.03;;
25127;SDS011;13107;51.304;6.866;2022-08-19T19:13:07;6.87;;;4.93;;
25127;SDS011;13107;51.304;6.866;2022-08-19T19:17:11;5.25;;;4.05;;
25127;SDS011;13107;51.304;6.866;2022-08-19T19:21:14;6.10;;;4.65;;
25127;SDS011;13107;51.304;6.866;2022-08-19T19:25:16;6.82;;;4.75;;
25127;SDS011;13107;51.304;6.866;2022-08-19T19:29:20;5.62;;;4.68;;
25127;SDS011;13107;51.304;6.866;2022-08-19T19:33:22;6.35;;;4.68;;
25127;SDS011;13107;51.304;6.866;2022-08-19T19:37:24;5.20;;;4.15;;
25127;SDS011;13107;51.304;6.866;2022-08-19T19:41:26;6.68;;;4.60;;
25127;SDS011;13107;51.304;6.866;2022-08-19T19:45:28;5.50;;;3.75;;
25127;SDS011;13107;51.304;6.866;2022-08-19T19:49:30;6.62;;;3.78;;
25127;SDS011;13107;51.304;6.866;2022-08-19T19:53:32;5.93;;;4.07;;
25127;SDS011;13107;51.304;6.866;2022-08-19T19:57:34;5.30;;;4.22;;
25127;SDS011;13107;51.304;6.866;2022-08-19T20:01:40;5.55;;;4.75;;
25127;SDS011;13107;51.304;6.866;2022-08-19T20:09:51;4.60;;;3.95;;
25127;SDS011;13107;51.304;6.866;2022-08-19T20:14:05;6.45;;;4.70;;
25127;SDS011;13107;51.304;6.866;2022-08-19T20:18:11;5.53;;;3.95;;
25127;SDS011;13107;51.304;6.866;2022-08-19T20:22:14;5.68;;;5.00;;
25127;SDS011;13107;51.304;6.866;2022-08-19T20:26:16;6.97;;;4.47;;
25127;SDS011;13107;51.304;6.866;2022-08-19T20:30:34;6.12;;;3.80;;
25127;SDS011;13107;51.304;6.866;2022-08-19T20:34:39;3.40;;;3.00;;
25127;SDS011;13107;51.304;6.866;2022-08-19T20:38:41;6.95;;;3.58;;
25127;SDS011;13107;51.304;6.866;2022-08-19T20:42:43;6.62;;;3.55;;
25127;SDS011;13107;51.304;6.866;2022-08-19T20:46:47;4.70;;;3.33;;
25127;SDS011;13107;51.304;6.866;2022-08-19T20:50:55;7.00;;;3.60;;
25127;SDS011;13107;51.304;6.866;2022-08-19T20:54:59;4.25;;;3.80;;
25127;SDS011;13107;51.304;6.866;2022-08-19T20:59:01;4.72;;;4.00;;
25127;SDS011;13107;51.304;6.866;2022-08-19T21:03:04;8.07;;;4.32;;
25127;SDS011;13107;51.304;6.866;2022-08-19T21:07:06;7.22;;;4.00;;
25127;SDS011;13107;51.304;6.866;2022-08-19T21:11:08;4.07;;;3.28;;
25127;SDS011;13107;51.304;6.866;2022-08-19T21:15:10;4.22;;;3.40;;
25127;SDS011;13107;51.304;6.866;2022-08-19T21:19:12;5.00;;;3.47;;
25127;SDS011;13107;51.304;6.866;2022-08-19T21:23:16;6.25;;;3.40;;
25127;SDS011;13107;51.304;6.866;2022-08-19T21:27:20;3.35;;;2.67;;
25127;SDS011;13107;51.304;6.866;2022-08-19T21:31:22;7.12;;;4.32;;
25127;SDS011;13107;51.304;6.866;2022-08-19T21:35:24;5.07;;;3.80;;
25127;SDS011;13107;51.304;6.866;2022-08-19T21:39:25;7.85;;;5.65;;
25127;SDS011;13107;51.304;6.866;2022-08-19T21:43:27;8.00;;;5.70;;
25127;SDS011;13107;51.304;6.866;2022-08-19T21:47:29;7.62;;;5.03;;
25127;SDS011;13107;51.304;6.866;2022-08-19T21:51:31;6.32;;;4.65;;
25127;SDS011;13107;51.304;6.866;2022-08-19T21:55:33;7.15;;;4.97;;
25127;SDS011;13107;51.304;6.866;2022-08-19T21:59:35;8.43;;;5.35;;
25127;SDS011;13107;51.304;6.866;2022-08-19T22:03:37;9.20;;;7.18;;
25127;SDS011;13107;51.304;6.866;2022-08-19T22:07:39;10.00;;;6.75;;
25127;SDS011;13107;51.304;6.866;2022-08-19T22:11:43;9.75;;;6.95;;
25127;SDS011;13107;51.304;6.866;2022-08-19T22:15:44;10.18;;;7.30;;
25127;SDS011;13107;51.304;6.866;2022-08-19T22:19:46;11.40;;;8.52;;
25127;SDS011;13107;51.304;6.866;2022-08-19T22:23:48;11.52;;;9.07;;
25127;SDS011;13107;51.304;6.866;2022-08-19T22:28:02;14.27;;;10.13;;
25127;SDS011;13107;51.304;6.866;2022-08-19T22:32:18;14.77;;;10.93;;
25127;SDS011;13107;51.304;6.866;2022-08-19T22:36:28;15.07;;;11.32;;
25127;SDS011;13107;51.304;6.866;2022-08-19T22:40:33;15.10;;;11.27;;
25127;SDS011;13107;51.304;6.866;2022-08-19T22:44:36;13.45;;;10.50;;
25127;SDS011;13107;51.304;6.866;2022-08-19T22:48:38;15.70;;;11.68;;
25127;SDS011;13107;51.304;6.866;2022-08-19T22:52:40;14.07;;;10.75;;
25127;SDS011;13107;51.304;6.866;2022-08-19T22:56:52;18.62;;;12.57;;
25127;SDS011;13107;51.304;6.866;2022-08-19T23:00:54;20.62;;;11.20;;
25127;SDS011;13107;51.304;6.866;2022-08-19T23:04:58;13.77;;;11.52;;
25127;SDS011;13107;51.304;6.866;2022-08-19T23:09:03;15.38;;;12.90;;
25127;SDS011;13107;51.304;6.866;2022-08-19T23:13:07;15.65;;;12.82;;
25127;SDS011;13107;51.304;6.866;2022-08-19T23:17:09;13.05;;;11.20;;
25127;SDS011;13107;51.304;6.866;2022-08-19T23:21:11;14.35;;;10.88;;
25127;SDS011;13107;51.304;6.866;2022-08-19T23:25:16;17.00;;;13.00;;
25127;SDS011;13107;51.304;6.866;2022-08-19T23:29:19;14.23;;;11.93;;
25127;SDS011;13107;51.304;6.866;2022-08-19T23:33:40;15.48;;;12.48;;
25127;SDS011;13107;51.304;6.866;2022-08-19T23:37:51;17.02;;;12.15;;
25127;SDS011;13107;51.304;6.866;2022-08-19T23:41:53;16.20;;;12.00;;
25127;SDS011;13107;51.304;6.866;2022-08-19T23:45:56;15.15;;;10.75;;
25127;SDS011;13107;51.304;6.866;2022-08-19T23:50:01;17.75;;;10.60;;
25127;SDS011;13107;51.304;6.866;2022-08-19T23:54:06;12.98;;;11.02;;
25127;SDS011;13107;51.304;6.866;2022-08-19T23:58:08;13.90;;;9.77;;
